sensor_id;sensor_type;location;lat;lon;timestamp;temperature;humidity
18317;DHT22;9284;52.298;21.164;2024-01-27T00:01:26;2.40;99.90
18317;DHT22;9284;52.298;21.164;2024-01-27T00:03:54;2.60;99.90
18317;DHT22;9284;52.298;21.164;2024-01-27T00:06:22;2.70;99.90
18317;DHT22;9284;52.298;21.164;2024-01-27T00:08:52;2.80;99.90
18317;DHT22;9284;52.298;21.164;2024-01-27T00:11:21;2.90;99.90
18317;DHT22;9284;52.298;21.164;2024-01-27T00:13:53;3.00;99.90
18317;DHT22;9284;52.298;21.164;2024-01-27T00:16:22;3.20;99.90
18317;DHT22;9284;52.298;21.164;2024-01-27T00:18:50;3.30;99.90
18317;DHT22;9284;52.298;21.164;2024-01-27T00:21:18;3.30;99.90
18317;DHT22;9284;52.298;21.164;2024-01-27T00:23:47;3.40;99.90
18317;DHT22;9284;52.298;21.164;2024-01-27T00:26:17;3.50;99.90
18317;DHT22;9284;52.298;21.164;2024-01-27T00:28:45;3.60;99.90
18317;DHT22;9284;52.298;21.164;2024-01-27T00:31:13;3.60;99.90
18317;DHT22;9284;52.298;21.164;2024-01-27T00:33:42;3.60;99.90
18317;DHT22;9284;52.298;21.164;2024-01-27T00:36:10;3.70;99.90
18317;DHT22;9284;52.298;21.164;2024-01-27T00:38:38;3.70;99.90
18317;DHT22;9284;52.298;21.164;2024-01-27T00:41:07;3.70;99.90
18317;DHT22;9284;52.298;21.164;2024-01-27T00:43:38;3.70;99.90
18317;DHT22;9284;52.298;21.164;2024-01-27T00:46:06;3.70;99.90
18317;DHT22;9284;52.298;21.164;2024-01-27T00:48:34;3.70;99.90
18317;DHT22;9284;52.298;21.164;2024-01-27T00:51:03;3.70;99.90
18317;DHT22;9284;52.298;21.164;2024-01-27T00:53:32;3.70;99.90
18317;DHT22;9284;52.298;21.164;2024-01-27T00:56:00;3.70;99.90
18317;DHT22;9284;52.298;21.164;2024-01-27T00:58:29;3.70;96.40
18317;DHT22;9284;52.298;21.164;2024-01-27T01:00:59;3.70;66.00
18317;DHT22;9284;52.298;21.164;2024-01-27T01:03:28;3.70;41.60
18317;DHT22;9284;52.298;21.164;2024-01-27T01:05:56;3.70;18.30
18317;DHT22;9284;52.298;21.164;2024-01-27T01:08:25;3.60;8.90
18317;DHT22;9284;52.298;21.164;2024-01-27T01:10:53;3.70;1.00
18317;DHT22;9284;52.298;21.164;2024-01-27T01:13:21;3.70;1.00
18317;DHT22;9284;52.298;21.164;2024-01-27T01:15:49;3.80;1.00
18317;DHT22;9284;52.298;21.164;2024-01-27T01:18:19;3.70;1.00
18317;DHT22;9284;52.298;21.164;2024-01-27T01:20:48;3.80;1.00
18317;DHT22;9284;52.298;21.164;2024-01-27T01:23:16;3.70;1.00
18317;DHT22;9284;52.298;21.164;2024-01-27T01:25:44;3.70;1.00
18317;DHT22;9284;52.298;21.164;2024-01-27T01:28:12;3.70;1.00
18317;DHT22;9284;52.298;21.164;2024-01-27T01:30:40;3.60;1.00
18317;DHT22;9284;52.298;21.164;2024-01-27T01:33:10;3.60;1.00
18317;DHT22;9284;52.298;21.164;2024-01-27T01:35:40;3.60;1.00
18317;DHT22;9284;52.298;21.164;2024-01-27T01:38:08;3.60;1.00
18317;DHT22;9284;52.298;21.164;2024-01-27T01:40:36;3.60;1.00
18317;DHT22;9284;52.298;21.164;2024-01-27T01:43:09;3.60;1.00
18317;DHT22;9284;52.298;21.164;2024-01-27T01:45:37;3.50;1.00
18317;DHT22;9284;52.298;21.164;2024-01-27T01:48:07;3.60;1.00
18317;DHT22;9284;52.298;21.164;2024-01-27T01:50:36;3.50;1.00
18317;DHT22;9284;52.298;21.164;2024-01-27T01:53:06;3.60;1.00
18317;DHT22;9284;52.298;21.164;2024-01-27T01:55:34;3.50;1.00
18317;DHT22;9284;52.298;21.164;2024-01-27T01:58:03;3.50;1.00
18317;DHT22;9284;52.298;21.164;2024-01-27T02:00:32;3.40;1.00
18317;DHT22;9284;52.298;21.164;2024-01-27T02:03:00;3.40;1.00
18317;DHT22;9284;52.298;21.164;2024-01-27T02:05:29;3.40;1.00
18317;DHT22;9284;52.298;21.164;2024-01-27T02:07:57;3.40;99.90
18317;DHT22;9284;52.298;21.164;2024-01-27T02:10:28;3.50;99.90
18317;DHT22;9284;52.298;21.164;2024-01-27T02:13:03;3.50;99.90
18317;DHT22;9284;52.298;21.164;2024-01-27T02:15:32;3.50;99.90
18317;DHT22;9284;52.298;21.164;2024-01-27T02:18:00;3.50;99.90
18317;DHT22;9284;52.298;21.164;2024-01-27T02:20:29;3.50;99.90
18317;DHT22;9284;52.298;21.164;2024-01-27T02:22:57;3.50;99.90
18317;DHT22;9284;52.298;21.164;2024-01-27T02:25:27;3.50;1.00
18317;DHT22;9284;52.298;21.164;2024-01-27T02:27:55;3.50;99.90
18317;DHT22;9284;52.298;21.164;2024-01-27T02:30:23;3.50;1.00
18317;DHT22;9284;52.298;21.164;2024-01-27T02:32:52;3.50;99.90
18317;DHT22;9284;52.298;21.164;2024-01-27T02:35:20;3.50;99.90
18317;DHT22;9284;52.298;21.164;2024-01-27T02:37:48;3.50;99.90
18317;DHT22;9284;52.298;21.164;2024-01-27T02:40:17;3.50;99.90
18317;DHT22;9284;52.298;21.164;2024-01-27T02:42:47;3.50;99.90
18317;DHT22;9284;52.298;21.164;2024-01-27T02:45:15;3.50;99.90
18317;DHT22;9284;52.298;21.164;2024-01-27T02:47:43;3.70;99.90
18317;DHT22;9284;52.298;21.164;2024-01-27T02:50:12;3.50;99.90
18317;DHT22;9284;52.298;21.164;2024-01-27T02:52:40;3.60;99.90
18317;DHT22;9284;52.298;21.164;2024-01-27T02:55:08;3.60;99.90
18317;DHT22;9284;52.298;21.164;2024-01-27T02:57:37;3.50;99.90
18317;DHT22;9284;52.298;21.164;2024-01-27T03:00:08;3.50;99.90
18317;DHT22;9284;52.298;21.164;2024-01-27T03:02:36;3.50;99.90
18317;DHT22;9284;52.298;21.164;2024-01-27T03:05:05;3.60;99.90
18317;DHT22;9284;52.298;21.164;2024-01-27T03:07:34;3.60;1.00
18317;DHT22;9284;52.298;21.164;2024-01-27T03:10:03;3.60;1.00
18317;DHT22;9284;52.298;21.164;2024-01-27T03:12:32;3.60;1.00
18317;DHT22;9284;52.298;21.164;2024-01-27T03:15:00;3.60;1.00
18317;DHT22;9284;52.298;21.164;2024-01-27T03:17:30;3.60;1.00
18317;DHT22;9284;52.298;21.164;2024-01-27T03:19:58;3.60;1.00
18317;DHT22;9284;52.298;21.164;2024-01-27T03:22:27;3.60;1.00
18317;DHT22;9284;52.298;21.164;2024-01-27T03:24:55;3.70;99.90
18317;DHT22;9284;52.298;21.164;2024-01-27T03:27:23;3.60;99.90
18317;DHT22;9284;52.298;21.164;2024-01-27T03:29:51;3.70;99.90
18317;DHT22;9284;52.298;21.164;2024-01-27T03:32:19;3.70;99.90
18317;DHT22;9284;52.298;21.164;2024-01-27T03:34:48;3.70;99.90
18317;DHT22;9284;52.298;21.164;2024-01-27T03:37:17;3.70;99.90
18317;DHT22;9284;52.298;21.164;2024-01-27T03:39:45;3.60;99.90
18317;DHT22;9284;52.298;21.164;2024-01-27T03:42:14;3.60;99.90
18317;DHT22;9284;52.298;21.164;2024-01-27T03:44:42;3.60;1.00
18317;DHT22;9284;52.298;21.164;2024-01-27T03:47:10;3.60;99.90
18317;DHT22;9284;52.298;21.164;2024-01-27T03:49:38;3.70;27.60
18317;DHT22;9284;52.298;21.164;2024-01-27T03:52:08;3.70;79.80
18317;DHT22;9284;52.298;21.164;2024-01-27T03:54:37;3.70;99.90
18317;DHT22;9284;52.298;21.164;2024-01-27T03:57:06;3.80;99.90
18317;DHT22;9284;52.298;21.164;2024-01-27T03:59:34;3.70;1.00
18317;DHT22;9284;52.298;21.164;2024-01-27T04:02:02;3.80;99.90
18317;DHT22;9284;52.298;21.164;2024-01-27T04:04:31;3.70;99.90
18317;DHT22;9284;52.298;21.164;2024-01-27T04:06:59;3.70;1.00
18317;DHT22;9284;52.298;21.164;2024-01-27T04:09:30;3.70;99.90
18317;DHT22;9284;52.298;21.164;2024-01-27T04:11:59;3.70;1.00
18317;DHT22;9284;52.298;21.164;2024-01-27T04:14:27;3.70;99.90
18317;DHT22;9284;52.298;21.164;2024-01-27T04:16:58;3.80;99.90
18317;DHT22;9284;52.298;21.164;2024-01-27T04:19:26;3.70;1.00
18317;DHT22;9284;52.298;21.164;2024-01-27T04:21:55;3.70;92.30
18317;DHT22;9284;52.298;21.164;2024-01-27T04:24:23;3.80;1.00
18317;DHT22;9284;52.298;21.164;2024-01-27T04:26:53;3.80;99.90
18317;DHT22;9284;52.298;21.164;2024-01-27T04:29:21;3.80;1.00
18317;DHT22;9284;52.298;21.164;2024-01-27T04:31:50;3.80;99.90
18317;DHT22;9284;52.298;21.164;2024-01-27T04:34:18;3.80;99.90
18317;DHT22;9284;52.298;21.164;2024-01-27T04:36:47;3.90;1.00
18317;DHT22;9284;52.298;21.164;2024-01-27T04:39:15;3.80;99.90
18317;DHT22;9284;52.298;21.164;2024-01-27T04:41:43;3.90;99.90
18317;DHT22;9284;52.298;21.164;2024-01-27T04:44:13;3.70;1.00
18317;DHT22;9284;52.298;21.164;2024-01-27T04:46:41;3.90;99.90
18317;DHT22;9284;52.298;21.164;2024-01-27T04:49:09;3.80;1.00
18317;DHT22;9284;52.298;21.164;2024-01-27T04:51:38;3.90;1.00
18317;DHT22;9284;52.298;21.164;2024-01-27T04:54:06;3.90;1.00
18317;DHT22;9284;52.298;21.164;2024-01-27T04:56:35;3.90;1.00
18317;DHT22;9284;52.298;21.164;2024-01-27T04:59:03;3.90;1.00
18317;DHT22;9284;52.298;21.164;2024-01-27T05:01:33;3.90;99.90
18317;DHT22;9284;52.298;21.164;2024-01-27T05:04:02;3.90;99.90
18317;DHT22;9284;52.298;21.164;2024-01-27T05:06:30;3.90;1.00
18317;DHT22;9284;52.298;21.164;2024-01-27T05:08:59;3.90;1.00
18317;DHT22;9284;52.298;21.164;2024-01-27T05:11:29;3.90;1.00
18317;DHT22;9284;52.298;21.164;2024-01-27T05:13:58;3.90;99.90
18317;DHT22;9284;52.298;21.164;2024-01-27T05:16:27;3.90;99.90
18317;DHT22;9284;52.298;21.164;2024-01-27T05:18:56;3.90;29.20
18317;DHT22;9284;52.298;21.164;2024-01-27T05:21:25;3.90;99.90
18317;DHT22;9284;52.298;21.164;2024-01-27T05:23:53;3.90;99.90
18317;DHT22;9284;52.298;21.164;2024-01-27T05:26:22;3.80;99.90
18317;DHT22;9284;52.298;21.164;2024-01-27T05:28:50;3.80;99.90
18317;DHT22;9284;52.298;21.164;2024-01-27T05:31:18;3.90;99.90
18317;DHT22;9284;52.298;21.164;2024-01-27T05:33:47;3.80;1.00
18317;DHT22;9284;52.298;21.164;2024-01-27T05:36:17;3.80;1.00
18317;DHT22;9284;52.298;21.164;2024-01-27T05:38:45;3.80;1.00
18317;DHT22;9284;52.298;21.164;2024-01-27T05:41:13;3.80;1.00
18317;DHT22;9284;52.298;21.164;2024-01-27T05:43:42;3.80;99.90
18317;DHT22;9284;52.298;21.164;2024-01-27T05:46:10;3.80;1.00
18317;DHT22;9284;52.298;21.164;2024-01-27T05:48:38;3.80;1.00
18317;DHT22;9284;52.298;21.164;2024-01-27T05:51:07;3.80;1.00
18317;DHT22;9284;52.298;21.164;2024-01-27T05:53:37;3.70;99.90
18317;DHT22;9284;52.298;21.164;2024-01-27T05:56:05;3.70;1.00
18317;DHT22;9284;52.298;21.164;2024-01-27T05:58:33;3.70;35.90
18317;DHT22;9284;52.298;21.164;2024-01-27T06:01:02;3.60;99.90
18317;DHT22;9284;52.298;21.164;2024-01-27T06:03:31;3.60;99.90
18317;DHT22;9284;52.298;21.164;2024-01-27T06:06:01;3.60;99.90
18317;DHT22;9284;52.298;21.164;2024-01-27T06:08:29;3.60;99.90
18317;DHT22;9284;52.298;21.164;2024-01-27T06:10:59;3.60;99.90
18317;DHT22;9284;52.298;21.164;2024-01-27T06:13:27;3.60;1.00
18317;DHT22;9284;52.298;21.164;2024-01-27T06:15:55;3.50;24.30
18317;DHT22;9284;52.298;21.164;2024-01-27T06:18:24;3.50;99.90
18317;DHT22;9284;52.298;21.164;2024-01-27T06:20:52;3.50;99.90
18317;DHT22;9284;52.298;21.164;2024-01-27T06:23:20;3.50;1.00
18317;DHT22;9284;52.298;21.164;2024-01-27T06:25:49;3.50;80.90
18317;DHT22;9284;52.298;21.164;2024-01-27T06:28:18;3.50;99.90
18317;DHT22;9284;52.298;21.164;2024-01-27T06:30:47;3.40;99.90
18317;DHT22;9284;52.298;21.164;2024-01-27T06:33:15;3.40;1.00
18317;DHT22;9284;52.298;21.164;2024-01-27T06:35:43;3.40;1.00
18317;DHT22;9284;52.298;21.164;2024-01-27T06:38:11;3.40;1.00
18317;DHT22;9284;52.298;21.164;2024-01-27T06:40:40;3.40;1.00
18317;DHT22;9284;52.298;21.164;2024-01-27T06:43:11;3.30;99.90
18317;DHT22;9284;52.298;21.164;2024-01-27T06:45:41;3.30;99.90
18317;DHT22;9284;52.298;21.164;2024-01-27T06:48:10;3.30;1.00
18317;DHT22;9284;52.298;21.164;2024-01-27T06:50:39;3.20;1.00
18317;DHT22;9284;52.298;21.164;2024-01-27T06:53:07;3.30;1.00
18317;DHT22;9284;52.298;21.164;2024-01-27T06:55:37;3.20;1.00
18317;DHT22;9284;52.298;21.164;2024-01-27T06:58:10;3.20;1.00
18317;DHT22;9284;52.298;21.164;2024-01-27T07:00:38;3.20;99.90
18317;DHT22;9284;52.298;21.164;2024-01-27T07:03:09;3.10;99.90
18317;DHT22;9284;52.298;21.164;2024-01-27T07:05:40;3.10;99.90
18317;DHT22;9284;52.298;21.164;2024-01-27T07:08:08;3.20;99.90
18317;DHT22;9284;52.298;21.164;2024-01-27T07:10:37;3.10;99.90
18317;DHT22;9284;52.298;21.164;2024-01-27T07:13:05;3.30;99.90
18317;DHT22;9284;52.298;21.164;2024-01-27T07:15:34;3.10;99.90
18317;DHT22;9284;52.298;21.164;2024-01-27T07:18:05;3.10;99.90
18317;DHT22;9284;52.298;21.164;2024-01-27T07:20:36;3.10;99.90
18317;DHT22;9284;52.298;21.164;2024-01-27T07:23:05;3.10;99.90
18317;DHT22;9284;52.298;21.164;2024-01-27T07:25:33;3.10;99.90
18317;DHT22;9284;52.298;21.164;2024-01-27T07:28:01;3.10;1.00
18317;DHT22;9284;52.298;21.164;2024-01-27T07:30:30;3.10;1.00
18317;DHT22;9284;52.298;21.164;2024-01-27T07:32:59;3.00;1.00
18317;DHT22;9284;52.298;21.164;2024-01-27T07:35:27;3.10;1.00
18317;DHT22;9284;52.298;21.164;2024-01-27T07:37:57;3.10;1.00
18317;DHT22;9284;52.298;21.164;2024-01-27T07:40:25;3.10;1.00
18317;DHT22;9284;52.298;21.164;2024-01-27T07:42:53;3.10;1.00
18317;DHT22;9284;52.298;21.164;2024-01-27T07:45:22;3.00;1.00
18317;DHT22;9284;52.298;21.164;2024-01-27T07:47:50;3.00;1.00
18317;DHT22;9284;52.298;21.164;2024-01-27T07:50:18;3.10;1.00
18317;DHT22;9284;52.298;21.164;2024-01-27T07:52:47;3.10;1.00
18317;DHT22;9284;52.298;21.164;2024-01-27T07:55:17;3.10;1.00
18317;DHT22;9284;52.298;21.164;2024-01-27T07:57:45;3.10;1.00
18317;DHT22;9284;52.298;21.164;2024-01-27T08:00:13;3.10;1.00
18317;DHT22;9284;52.298;21.164;2024-01-27T08:02:42;3.10;1.00
18317;DHT22;9284;52.298;21.164;2024-01-27T08:05:10;3.20;1.00
18317;DHT22;9284;52.298;21.164;2024-01-27T08:07:39;3.20;1.00
18317;DHT22;9284;52.298;21.164;2024-01-27T08:10:07;3.20;1.00
18317;DHT22;9284;52.298;21.164;2024-01-27T08:12:39;3.20;1.00
18317;DHT22;9284;52.298;21.164;2024-01-27T08:15:08;3.20;1.00
18317;DHT22;9284;52.298;21.164;2024-01-27T08:17:36;3.20;1.00
18317;DHT22;9284;52.298;21.164;2024-01-27T08:20:06;3.30;1.00
18317;DHT22;9284;52.298;21.164;2024-01-27T08:22:35;3.30;1.00
18317;DHT22;9284;52.298;21.164;2024-01-27T08:25:04;3.30;1.00
18317;DHT22;9284;52.298;21.164;2024-01-27T08:27:32;3.20;1.00
18317;DHT22;9284;52.298;21.164;2024-01-27T08:30:03;3.20;1.00
18317;DHT22;9284;52.298;21.164;2024-01-27T08:32:31;3.20;1.00
18317;DHT22;9284;52.298;21.164;2024-01-27T08:35:00;3.30;1.00
18317;DHT22;9284;52.298;21.164;2024-01-27T08:37:28;3.30;1.00
18317;DHT22;9284;52.298;21.164;2024-01-27T08:39:56;3.30;1.00
18317;DHT22;9284;52.298;21.164;2024-01-27T08:42:25;3.30;1.00
18317;DHT22;9284;52.298;21.164;2024-01-27T08:44:53;3.30;1.00
18317;DHT22;9284;52.298;21.164;2024-01-27T08:47:23;3.30;1.00
18317;DHT22;9284;52.298;21.164;2024-01-27T08:49:51;3.20;1.00
18317;DHT22;9284;52.298;21.164;2024-01-27T08:52:20;3.30;1.00
18317;DHT22;9284;52.298;21.164;2024-01-27T08:54:48;3.40;1.00
18317;DHT22;9284;52.298;21.164;2024-01-27T08:57:16;3.20;1.00
18317;DHT22;9284;52.298;21.164;2024-01-27T08:59:45;3.20;1.00
18317;DHT22;9284;52.298;21.164;2024-01-27T09:02:13;3.20;1.00
18317;DHT22;9284;52.298;21.164;2024-01-27T09:04:43;3.20;1.00
18317;DHT22;9284;52.298;21.164;2024-01-27T09:07:11;3.20;1.00
18317;DHT22;9284;52.298;21.164;2024-01-27T09:09:40;3.20;1.00
18317;DHT22;9284;52.298;21.164;2024-01-27T09:12:08;3.20;1.00
18317;DHT22;9284;52.298;21.164;2024-01-27T09:14:36;3.30;1.00
18317;DHT22;9284;52.298;21.164;2024-01-27T09:17:05;3.30;1.00
18317;DHT22;9284;52.298;21.164;2024-01-27T09:19:33;3.20;1.00
18317;DHT22;9284;52.298;21.164;2024-01-27T09:22:03;3.20;1.00
18317;DHT22;9284;52.298;21.164;2024-01-27T09:24:32;3.30;1.00
18317;DHT22;9284;52.298;21.164;2024-01-27T09:27:00;3.30;1.00
18317;DHT22;9284;52.298;21.164;2024-01-27T09:29:29;3.30;1.00
18317;DHT22;9284;52.298;21.164;2024-01-27T09:31:57;3.30;1.00
18317;DHT22;9284;52.298;21.164;2024-01-27T09:34:26;3.30;1.00
18317;DHT22;9284;52.298;21.164;2024-01-27T09:36:55;3.40;1.00
18317;DHT22;9284;52.298;21.164;2024-01-27T09:39:25;3.40;1.00
18317;DHT22;9284;52.298;21.164;2024-01-27T09:41:54;3.40;1.00
18317;DHT22;9284;52.298;21.164;2024-01-27T09:44:24;3.40;1.00
18317;DHT22;9284;52.298;21.164;2024-01-27T09:46:55;3.40;1.00
18317;DHT22;9284;52.298;21.164;2024-01-27T09:49:25;3.40;1.00
18317;DHT22;9284;52.298;21.164;2024-01-27T09:51:54;3.40;1.00
18317;DHT22;9284;52.298;21.164;2024-01-27T09:54:25;3.40;1.00
18317;DHT22;9284;52.298;21.164;2024-01-27T09:56:54;3.40;1.00
18317;DHT22;9284;52.298;21.164;2024-01-27T09:59:25;3.40;1.00
18317;DHT22;9284;52.298;21.164;2024-01-27T10:01:53;3.40;1.00
18317;DHT22;9284;52.298;21.164;2024-01-27T10:04:22;3.40;1.00
18317;DHT22;9284;52.298;21.164;2024-01-27T10:06:52;3.40;1.00
18317;DHT22;9284;52.298;21.164;2024-01-27T10:09:21;3.50;1.00
18317;DHT22;9284;52.298;21.164;2024-01-27T10:11:51;3.50;1.00
18317;DHT22;9284;52.298;21.164;2024-01-27T10:14:22;3.50;1.00
18317;DHT22;9284;52.298;21.164;2024-01-27T10:16:50;3.60;1.00
18317;DHT22;9284;52.298;21.164;2024-01-27T10:19:19;3.70;1.00
18317;DHT22;9284;52.298;21.164;2024-01-27T10:21:48;3.60;1.00
18317;DHT22;9284;52.298;21.164;2024-01-27T10:24:17;3.70;1.00
18317;DHT22;9284;52.298;21.164;2024-01-27T10:26:45;3.70;1.00
18317;DHT22;9284;52.298;21.164;2024-01-27T10:29:16;3.60;99.90
18317;DHT22;9284;52.298;21.164;2024-01-27T10:31:44;3.60;99.90
18317;DHT22;9284;52.298;21.164;2024-01-27T10:34:12;3.60;1.00
18317;DHT22;9284;52.298;21.164;2024-01-27T10:36:47;3.60;1.00
18317;DHT22;9284;52.298;21.164;2024-01-27T10:39:18;3.70;1.00
18317;DHT22;9284;52.298;21.164;2024-01-27T10:41:49;3.70;1.00
18317;DHT22;9284;52.298;21.164;2024-01-27T10:44:20;3.70;1.00
18317;DHT22;9284;52.298;21.164;2024-01-27T10:46:50;3.80;1.00
18317;DHT22;9284;52.298;21.164;2024-01-27T10:49:18;3.80;1.00
18317;DHT22;9284;52.298;21.164;2024-01-27T10:51:53;3.70;1.00
18317;DHT22;9284;52.298;21.164;2024-01-27T10:54:24;3.70;1.00
18317;DHT22;9284;52.298;21.164;2024-01-27T10:56:55;3.70;1.00
18317;DHT22;9284;52.298;21.164;2024-01-27T10:59:26;3.60;1.00
18317;DHT22;9284;52.298;21.164;2024-01-27T11:01:56;3.70;1.00
18317;DHT22;9284;52.298;21.164;2024-01-27T11:04:26;3.70;1.00
18317;DHT22;9284;52.298;21.164;2024-01-27T11:06:56;3.70;1.00
18317;DHT22;9284;52.298;21.164;2024-01-27T11:09:27;3.70;1.00
18317;DHT22;9284;52.298;21.164;2024-01-27T11:11:57;3.70;1.00
18317;DHT22;9284;52.298;21.164;2024-01-27T11:14:28;3.60;1.00
18317;DHT22;9284;52.298;21.164;2024-01-27T11:16:56;3.60;1.00
18317;DHT22;9284;52.298;21.164;2024-01-27T11:19:25;3.70;1.00
18317;DHT22;9284;52.298;21.164;2024-01-27T11:22:01;3.70;1.00
18317;DHT22;9284;52.298;21.164;2024-01-27T11:24:30;3.80;1.00
18317;DHT22;9284;52.298;21.164;2024-01-27T11:27:02;3.80;1.00
18317;DHT22;9284;52.298;21.164;2024-01-27T11:29:32;3.70;1.00
18317;DHT22;9284;52.298;21.164;2024-01-27T11:32:02;3.70;1.00
18317;DHT22;9284;52.298;21.164;2024-01-27T11:34:43;3.70;1.00
18317;DHT22;9284;52.298;21.164;2024-01-27T11:37:13;3.70;1.00
18317;DHT22;9284;52.298;21.164;2024-01-27T11:39:42;3.70;1.00
18317;DHT22;9284;52.298;21.164;2024-01-27T11:42:12;3.70;1.00
18317;DHT22;9284;52.298;21.164;2024-01-27T11:44:42;3.70;99.90
18317;DHT22;9284;52.298;21.164;2024-01-27T11:47:16;3.60;99.90
18317;DHT22;9284;52.298;21.164;2024-01-27T11:49:50;3.70;99.90
18317;DHT22;9284;52.298;21.164;2024-01-27T11:52:21;3.60;99.90
18317;DHT22;9284;52.298;21.164;2024-01-27T11:54:54;3.60;1.00
18317;DHT22;9284;52.298;21.164;2024-01-27T11:57:23;3.60;58.40
18317;DHT22;9284;52.298;21.164;2024-01-27T11:59:53;3.60;99.90
18317;DHT22;9284;52.298;21.164;2024-01-27T12:02:22;3.60;42.10
18317;DHT22;9284;52.298;21.164;2024-01-27T12:04:51;3.60;1.00
18317;DHT22;9284;52.298;21.164;2024-01-27T12:07:20;3.60;1.00
18317;DHT22;9284;52.298;21.164;2024-01-27T12:09:50;3.60;1.00
18317;DHT22;9284;52.298;21.164;2024-01-27T12:12:18;3.60;1.00
18317;DHT22;9284;52.298;21.164;2024-01-27T12:14:48;3.60;1.00
18317;DHT22;9284;52.298;21.164;2024-01-27T12:17:18;3.60;1.00
18317;DHT22;9284;52.298;21.164;2024-01-27T12:19:47;3.60;1.00
18317;DHT22;9284;52.298;21.164;2024-01-27T12:22:24;3.60;99.90
18317;DHT22;9284;52.298;21.164;2024-01-27T12:24:54;3.60;1.00
18317;DHT22;9284;52.298;21.164;2024-01-27T12:27:23;3.50;1.00
18317;DHT22;9284;52.298;21.164;2024-01-27T12:29:52;3.50;1.00
18317;DHT22;9284;52.298;21.164;2024-01-27T12:32:22;3.50;1.00
18317;DHT22;9284;52.298;21.164;2024-01-27T12:34:50;3.50;1.00
18317;DHT22;9284;52.298;21.164;2024-01-27T12:37:21;3.50;1.00
18317;DHT22;9284;52.298;21.164;2024-01-27T12:39:50;3.50;99.90
18317;DHT22;9284;52.298;21.164;2024-01-27T12:42:18;3.50;99.90
18317;DHT22;9284;52.298;21.164;2024-01-27T12:44:47;3.40;93.40
18317;DHT22;9284;52.298;21.164;2024-01-27T12:47:16;3.50;99.90
18317;DHT22;9284;52.298;21.164;2024-01-27T12:49:47;3.50;99.90
18317;DHT22;9284;52.298;21.164;2024-01-27T12:52:16;3.50;99.90
18317;DHT22;9284;52.298;21.164;2024-01-27T12:54:45;3.50;99.90
18317;DHT22;9284;52.298;21.164;2024-01-27T12:57:13;3.50;99.90
18317;DHT22;9284;52.298;21.164;2024-01-27T12:59:41;3.50;1.00
18317;DHT22;9284;52.298;21.164;2024-01-27T13:02:10;3.50;20.30
18317;DHT22;9284;52.298;21.164;2024-01-27T13:04:38;3.50;1.00
18317;DHT22;9284;52.298;21.164;2024-01-27T13:07:08;3.50;1.00
18317;DHT22;9284;52.298;21.164;2024-01-27T13:09:36;3.50;1.00
18317;DHT22;9284;52.298;21.164;2024-01-27T13:12:05;3.50;1.00
18317;DHT22;9284;52.298;21.164;2024-01-27T13:14:34;3.60;1.00
18317;DHT22;9284;52.298;21.164;2024-01-27T13:17:03;3.60;99.90
18317;DHT22;9284;52.298;21.164;2024-01-27T13:19:32;3.70;99.90
18317;DHT22;9284;52.298;21.164;2024-01-27T13:22:00;3.70;99.90
18317;DHT22;9284;52.298;21.164;2024-01-27T13:24:30;3.70;99.90
18317;DHT22;9284;52.298;21.164;2024-01-27T13:26:59;3.70;1.00
18317;DHT22;9284;52.298;21.164;2024-01-27T13:29:27;3.80;99.90
18317;DHT22;9284;52.298;21.164;2024-01-27T13:31:55;3.80;99.90
18317;DHT22;9284;52.298;21.164;2024-01-27T13:34:25;3.80;1.00
18317;DHT22;9284;52.298;21.164;2024-01-27T13:36:55;3.80;1.00
18317;DHT22;9284;52.298;21.164;2024-01-27T13:39:23;3.90;1.00
18317;DHT22;9284;52.298;21.164;2024-01-27T13:41:53;3.90;1.00
18317;DHT22;9284;52.298;21.164;2024-01-27T13:44:21;3.90;99.90
18317;DHT22;9284;52.298;21.164;2024-01-27T13:46:49;3.90;1.00
18317;DHT22;9284;52.298;21.164;2024-01-27T13:49:18;3.90;1.00
18317;DHT22;9284;52.298;21.164;2024-01-27T13:51:47;3.90;99.90
18317;DHT22;9284;52.298;21.164;2024-01-27T13:54:15;4.00;1.00
18317;DHT22;9284;52.298;21.164;2024-01-27T13:56:44;3.90;90.20
18317;DHT22;9284;52.298;21.164;2024-01-27T13:59:14;3.90;1.00
18317;DHT22;9284;52.298;21.164;2024-01-27T14:01:42;3.90;1.00
18317;DHT22;9284;52.298;21.164;2024-01-27T14:04:11;3.80;1.00
18317;DHT22;9284;52.298;21.164;2024-01-27T14:06:40;3.80;99.90
18317;DHT22;9284;52.298;21.164;2024-01-27T14:09:08;3.80;1.00
18317;DHT22;9284;52.298;21.164;2024-01-27T14:11:37;3.80;1.00
18317;DHT22;9284;52.298;21.164;2024-01-27T14:14:05;3.80;99.90
18317;DHT22;9284;52.298;21.164;2024-01-27T14:16:35;3.80;99.90
18317;DHT22;9284;52.298;21.164;2024-01-27T14:19:03;3.90;1.00
18317;DHT22;9284;52.298;21.164;2024-01-27T14:21:31;3.90;1.00
18317;DHT22;9284;52.298;21.164;2024-01-27T14:24:00;3.90;1.00
18317;DHT22;9284;52.298;21.164;2024-01-27T14:26:32;3.90;1.00
18317;DHT22;9284;52.298;21.164;2024-01-27T14:29:00;3.90;1.00
18317;DHT22;9284;52.298;21.164;2024-01-27T14:31:28;3.90;1.00
18317;DHT22;9284;52.298;21.164;2024-01-27T14:33:59;3.80;1.00
18317;DHT22;9284;52.298;21.164;2024-01-27T14:36:27;3.80;99.90
18317;DHT22;9284;52.298;21.164;2024-01-27T14:38:55;3.80;99.90
18317;DHT22;9284;52.298;21.164;2024-01-27T14:41:24;3.80;1.00
18317;DHT22;9284;52.298;21.164;2024-01-27T14:43:52;3.70;1.00
18317;DHT22;9284;52.298;21.164;2024-01-27T14:46:21;3.70;1.00
18317;DHT22;9284;52.298;21.164;2024-01-27T14:48:50;3.60;99.90
18317;DHT22;9284;52.298;21.164;2024-01-27T14:51:20;3.60;1.00
18317;DHT22;9284;52.298;21.164;2024-01-27T14:53:49;3.60;99.90
18317;DHT22;9284;52.298;21.164;2024-01-27T14:56:17;3.50;99.90
18317;DHT22;9284;52.298;21.164;2024-01-27T14:58:46;3.50;1.00
18317;DHT22;9284;52.298;21.164;2024-01-27T15:01:18;3.40;99.90
18317;DHT22;9284;52.298;21.164;2024-01-27T15:03:46;3.40;99.90
18317;DHT22;9284;52.298;21.164;2024-01-27T15:06:15;3.40;1.00
18317;DHT22;9284;52.298;21.164;2024-01-27T15:08:45;3.40;1.00
18317;DHT22;9284;52.298;21.164;2024-01-27T15:11:13;3.40;99.90
18317;DHT22;9284;52.298;21.164;2024-01-27T15:13:42;3.40;1.00
18317;DHT22;9284;52.298;21.164;2024-01-27T15:16:10;3.40;99.90
18317;DHT22;9284;52.298;21.164;2024-01-27T15:18:38;3.40;34.40
18317;DHT22;9284;52.298;21.164;2024-01-27T15:21:11;3.40;99.90
18317;DHT22;9284;52.298;21.164;2024-01-27T15:23:39;3.40;69.70
18317;DHT22;9284;52.298;21.164;2024-01-27T15:26:10;3.30;1.00
18317;DHT22;9284;52.298;21.164;2024-01-27T15:28:39;3.30;99.90
18317;DHT22;9284;52.298;21.164;2024-01-27T15:31:07;3.20;1.00
18317;DHT22;9284;52.298;21.164;2024-01-27T15:33:35;3.20;99.90
18317;DHT22;9284;52.298;21.164;2024-01-27T15:36:05;3.00;1.00
18317;DHT22;9284;52.298;21.164;2024-01-27T15:38:33;3.00;47.50
18317;DHT22;9284;52.298;21.164;2024-01-27T15:41:02;3.00;99.90
18317;DHT22;9284;52.298;21.164;2024-01-27T15:43:36;3.00;99.90
18317;DHT22;9284;52.298;21.164;2024-01-27T15:46:05;2.90;99.90
18317;DHT22;9284;52.298;21.164;2024-01-27T15:48:34;2.90;1.00
18317;DHT22;9284;52.298;21.164;2024-01-27T15:51:04;2.90;1.00
18317;DHT22;9284;52.298;21.164;2024-01-27T15:53:32;2.80;99.90
18317;DHT22;9284;52.298;21.164;2024-01-27T15:56:01;2.80;99.90
18317;DHT22;9284;52.298;21.164;2024-01-27T15:58:29;2.90;1.00
18317;DHT22;9284;52.298;21.164;2024-01-27T16:00:59;2.80;1.00
18317;DHT22;9284;52.298;21.164;2024-01-27T16:03:27;2.70;99.90
18317;DHT22;9284;52.298;21.164;2024-01-27T16:05:55;2.70;99.90